Time;durP1;ratioP1;P1;durP2;ratioP2;P2;SDS_P1;SDS_P2;PMS_P1;PMS_P2;Temp;Humidity;BMP_temperature;BMP_pressure;BME280_temperature;BME280_humidity;BME280_pressure;Samples;Min_cycle;Max_cycle;Signal;HPM_P1;HPM_P2
2022/06/26 00:02:17;;;;;;;16.50;14.52;;;;;;;16.94;100.00;101101.19;5065140;28;20116;-69
2022/06/26 00:04:42;;;;;;;15.90;14.18;;;;;;;16.85;100.00;101090.56;5062687;28;20111;-68
2022/06/26 00:07:07;;;;;;;18.67;15.55;;;;;;;16.93;100.00;101102.25;5061999;28;20453;-68
2022/06/26 00:09:33;;;;;;;16.88;15.00;;;;;;;16.94;100.00;101106.72;5062559;28;20037;-69
2022/06/26 00:11:58;;;;;;;19.60;15.85;;;;;;;16.95;100.00;101114.78;5054103;28;20086;-68
2022/06/26 00:14:24;;;;;;;18.60;16.50;;;;;;;16.95;100.00;101116.72;5060923;28;20606;-69
2022/06/26 00:16:49;;;;;;;19.20;16.98;;;;;;;16.95;100.00;101114.78;5055338;28;20031;-69
2022/06/26 00:19:15;;;;;;;22.75;18.77;;;;;;;16.93;100.00;101102.25;5058039;28;20027;-69
2022/06/26 00:21:40;;;;;;;21.08;18.60;;;;;;;16.88;100.00;101116.09;5057572;28;20497;-69
2022/06/26 00:24:06;;;;;;;20.60;18.40;;;;;;;16.86;100.00;101128.28;5061302;28;20489;-68
2022/06/26 00:26:31;;;;;;;22.92;19.20;;;;;;;16.86;100.00;101133.84;5059974;28;20119;-69
2022/06/26 00:28:56;;;;;;;24.40;20.27;;;;;;;16.83;100.00;101125.25;5054255;28;20079;-69
2022/06/26 00:31:21;;;;;;;25.55;20.88;;;;;;;16.83;100.00;101128.84;5052940;28;20025;-69
2022/06/26 00:33:47;;;;;;;23.92;21.23;;;;;;;16.81;100.00;101139.34;5045706;28;20416;-69
2022/06/26 00:36:12;;;;;;;25.20;21.23;;;;;;;16.80;100.00;101142.41;5055309;28;20032;-69
2022/06/26 00:38:37;;;;;;;25.35;21.90;;;;;;;16.80;100.00;101142.41;5056463;28;20087;-69
2022/06/26 00:41:02;;;;;;;23.65;20.75;;;;;;;16.81;100.00;101142.13;5047903;28;20037;-69
2022/06/26 00:43:28;;;;;;;24.63;22.02;;;;;;;16.80;100.00;101151.56;5054032;28;20021;-69
2022/06/26 00:45:54;;;;;;;24.40;21.27;;;;;;;16.82;100.00;101138.25;5050580;28;20081;-68
2022/06/26 00:48:19;;;;;;;24.33;21.77;;;;;;;16.79;100.00;101152.66;5064442;28;20068;-69
2022/06/26 00:50:44;;;;;;;26.65;22.52;;;;;;;16.80;100.00;101154.31;5068432;28;20029;-69
2022/06/26 00:53:10;;;;;;;23.80;21.10;;;;;;;16.82;100.00;101163.22;5056711;28;20029;-69
2022/06/26 00:55:36;;;;;;;25.35;22.38;;;;;;;16.82;100.00;101168.75;5067871;28;20021;-69
2022/06/26 00:58:02;;;;;;;25.65;22.70;;;;;;;16.83;100.00;101170.47;5065626;28;20345;-69
2022/06/26 01:00:27;;;;;;;25.52;21.77;;;;;;;16.81;100.00;101175.41;5065582;28;20364;-69
2022/06/26 01:02:52;;;;;;;27.80;23.88;;;;;;;16.77;100.00;101178.97;5050476;28;20044;-69
2022/06/26 01:05:18;;;;;;;26.65;23.17;;;;;;;16.76;100.00;101180.91;5064672;28;20039;-69
2022/06/26 01:07:44;;;;;;;26.60;23.77;;;;;;;16.77;100.00;101181.75;5055219;28;20016;-69
2022/06/26 01:10:09;;;;;;;26.50;23.67;;;;;;;16.77;100.00;101176.19;5072412;22;20031;-69
2022/06/26 01:12:35;;;;;;;30.65;23.75;;;;;;;16.79;100.00;101176.78;5045747;28;20029;-69
2022/06/26 01:15:00;;;;;;;28.13;24.13;;;;;;;16.78;100.00;101173.19;5055637;28;20029;-69
2022/06/26 01:17:26;;;;;;;26.73;23.92;;;;;;;16.79;100.00;101179.56;5057139;28;20039;-69
2022/06/26 01:19:53;;;;;;;30.63;23.90;;;;;;;16.82;100.00;101179.03;5048587;28;20044;-69
2022/06/26 01:22:19;;;;;;;25.75;22.17;;;;;;;16.82;100.00;101177.09;5047474;28;20373;-69
2022/06/26 01:24:44;;;;;;;25.25;22.55;;;;;;;16.80;100.00;101176.53;5046705;28;20035;-69
2022/06/26 01:27:09;;;;;;;24.45;21.33;;;;;;;16.82;100.00;101184.56;5049534;28;20038;-69
2022/06/26 01:29:35;;;;;;;26.05;21.60;;;;;;;16.81;100.00;101194.00;5054357;28;20136;-69
2022/06/26 01:32:00;;;;;;;22.92;20.38;;;;;;;16.82;100.00;101201.22;5046536;28;20030;-69
2022/06/26 01:34:25;;;;;;;24.63;21.45;;;;;;;16.82;100.00;101199.28;5045576;28;20480;-69
2022/06/26 01:36:51;;;;;;;25.85;21.40;;;;;;;16.77;100.00;101199.22;5047545;28;20017;-69
2022/06/26 01:39:20;;;;;;;24.70;20.83;;;;;;;16.74;100.00;101207.25;5060571;28;20401;-69
2022/06/26 01:41:49;;;;;;;26.77;21.50;;;;;;;16.69;100.00;101204.41;5050302;28;20029;-69
2022/06/26 01:44:15;;;;;;;26.38;23.05;;;;;;;16.66;100.00;101196.59;5047495;28;20150;-69
2022/06/26 01:46:40;;;;;;;31.33;24.50;;;;;;;16.65;100.00;101190.22;5048300;28;20020;-70
2022/06/26 01:49:05;;;;;;;29.52;24.80;;;;;;;16.69;100.00;101191.38;5046185;28;20472;-69
2022/06/26 01:51:31;;;;;;;31.27;26.02;;;;;;;16.67;100.00;101188.00;5047550;28;20021;-69
2022/06/26 01:53:56;;;;;;;29.58;24.88;;;;;;;16.67;100.00;101188.00;5046638;28;20094;-70
2022/06/26 01:56:21;;;;;;;32.03;26.60;;;;;;;16.64;100.00;101188.56;5061854;28;20049;-69
2022/06/26 01:58:47;;;;;;;34.22;27.13;;;;;;;16.61;100.00;101194.63;5046174;28;20049;-69
2022/06/26 02:01:12;;;;;;;33.88;28.17;;;;;;;16.51;100.00;101184.25;5038399;28;20460;-68
2022/06/26 02:03:37;;;;;;;33.75;27.73;;;;;;;16.54;100.00;101180.13;5041820;28;20032;-70
2022/06/26 02:06:03;;;;;;;35.22;27.48;;;;;;;16.49;100.00;101186.47;5050331;28;20552;-69
2022/06/26 02:08:28;;;;;;;38.22;30.02;;;;;;;16.43;100.00;101170.88;5046804;28;20120;-69
2022/06/26 02:13:42;;;;;;;34.85;29.30;;;;;;;16.35;100.00;101182.44;5032539;28;20064;-69
2022/06/26 02:16:17;;;;;;;36.38;28.83;;;;;;;16.32;100.00;101174.63;5044194;28;20063;-69
2022/06/26 02:18:46;;;;;;;36.72;28.70;;;;;;;16.28;100.00;101171.56;5040528;28;20033;-69
2022/06/26 02:21:14;;;;;;;37.03;29.90;;;;;;;16.30;100.00;101162.97;5045081;28;20025;-69
2022/06/26 02:23:40;;;;;;;36.78;28.63;;;;;;;16.32;100.00;101155.22;5045216;28;20480;-69
2022/06/26 02:26:07;;;;;;;40.15;30.23;;;;;;;16.31;100.00;101159.94;5046790;28;20079;-69
2022/06/26 02:28:33;;;;;;;41.03;30.45;;;;;;;16.34;100.00;101155.81;5045277;28;20037;-70
2022/06/26 02:30:59;;;;;;;39.10;30.08;;;;;;;16.32;100.00;101158.00;5037567;28;20095;-70
2022/06/26 02:33:24;;;;;;;38.25;29.67;;;;;;;16.34;100.00;101158.59;5039012;28;20034;-70
2022/06/26 02:35:50;;;;;;;42.58;30.88;;;;;;;16.33;100.00;101157.75;5039612;28;20041;-69
2022/06/26 02:38:16;;;;;;;41.08;31.00;;;;;;;16.32;100.00;101169.06;5039416;28;20939;-69
2022/06/26 02:40:42;;;;;;;40.25;30.58;;;;;;;16.29;100.00;101161.31;5050006;28;20341;-69
2022/06/26 02:43:07;;;;;;;43.53;31.98;;;;;;;16.28;100.00;101174.34;5043999;28;20052;-69
2022/06/26 02:45:33;;;;;;;41.38;31.95;;;;;;;16.24;100.00;101194.50;5045297;28;20071;-69
2022/06/26 02:47:58;;;;;;;40.47;31.63;;;;;;;16.25;100.00;101188.69;5038913;28;20040;-69
2022/06/26 02:50:23;;;;;;;41.47;31.08;;;;;;;16.24;100.00;101184.25;5039764;28;20451;-69
2022/06/26 02:52:49;;;;;;;43.85;32.13;;;;;;;16.21;100.00;101197.78;5044295;28;20538;-69
2022/06/26 02:55:14;;;;;;;41.42;30.48;;;;;;;16.20;100.00;101194.19;5041605;28;20033;-69
2022/06/26 02:57:40;;;;;;;44.95;32.53;;;;;;;16.18;100.00;101201.09;5046603;28;20033;-69
2022/06/26 03:00:08;;;;;;;40.72;31.45;;;;;;;16.13;100.00;101209.34;5042667;28;20040;-69
2022/06/26 03:02:33;;;;;;;;;;;;;;;16.19;100.00;101209.16;5059626;28;20459;-69
2022/06/26 03:04:59;;;;;;;35.37;26.00;;;;;;;16.04;100.00;101209.78;5048924;28;20011;-69
2022/06/26 03:07:24;;;;;;;35.53;26.25;;;;;;;15.91;100.00;101212.94;5046266;28;20025;-69
2022/06/26 03:09:49;;;;;;;35.35;25.48;;;;;;;15.86;100.00;101215.66;5044228;28;20113;-69
2022/06/26 03:12:14;;;;;;;34.33;25.52;;;;;;;15.79;100.00;101220.53;5045032;28;20056;-69
2022/06/26 03:14:40;;;;;;;33.80;26.02;;;;;;;15.73;100.00;101216.03;5051416;28;20021;-69
2022/06/26 03:17:06;;;;;;;35.38;25.92;;;;;;;15.66;100.00;101209.84;5044654;28;20033;-69
2022/06/26 03:19:32;;;;;;;35.33;26.90;;;;;;;15.61;100.00;101212.50;5041336;28;20029;-69
2022/06/26 03:21:58;;;;;;;39.67;27.92;;;;;;;15.57;100.00;101224.09;5036875;28;20903;-70
2022/06/26 03:24:23;;;;;;;37.45;26.95;;;;;;;15.57;100.00;101228.81;5045985;28;20052;-69
2022/06/26 03:26:48;;;;;;;34.30;25.90;;;;;;;15.51;100.00;101227.91;5059180;28;20132;-69
2022/06/26 03:29:14;;;;;;;35.95;26.20;;;;;;;15.44;100.00;101240.22;5049657;28;20029;-69
2022/06/26 03:31:40;;;;;;;35.40;23.75;;;;;;;15.38;100.00;101238.47;5045117;28;20095;-69
2022/06/26 03:34:06;;;;;;;31.52;22.25;;;;;;;15.35;100.00;101248.09;5040125;28;20449;-69
2022/06/26 03:36:33;;;;;;;30.20;21.80;;;;;;;15.31;100.00;101246.97;5039594;28;20837;-69
2022/06/26 03:38:58;;;;;;;32.58;21.30;;;;;;;15.27;100.00;101238.31;5041996;28;20021;-69
2022/06/26 03:41:23;;;;;;;31.60;21.80;;;;;;;15.23;100.00;101236.31;5038475;28;20037;-69
2022/06/26 03:43:49;;;;;;;29.27;20.25;;;;;;;15.23;100.00;101259.28;5036430;28;20033;-69
2022/06/26 03:46:15;;;;;;;28.63;20.30;;;;;;;15.19;100.00;101273.84;5042070;28;20104;-69
2022/06/26 03:48:40;;;;;;;32.92;21.02;;;;;;;15.16;100.00;101271.63;5040366;28;20028;-69
2022/06/26 03:51:06;;;;;;;26.40;19.05;;;;;;;15.13;100.00;101277.63;5044766;28;20496;-69
2022/06/26 03:53:32;;;;;;;29.23;19.73;;;;;;;15.12;100.00;101289.78;5055082;28;20419;-70
2022/06/26 03:55:58;;;;;;;33.97;19.73;;;;;;;15.11;100.00;101277.06;5040765;28;20029;-69
2022/06/26 03:58:23;;;;;;;25.65;17.77;;;;;;;15.08;100.00;101274.78;5040505;28;20078;-69
2022/06/26 04:00:49;;;;;;;24.88;17.42;;;;;;;15.08;100.00;101283.91;5044170;28;20112;-69
2022/06/26 04:03:14;;;;;;;26.92;18.15;;;;;;;15.05;100.00;101282.50;5043686;28;20035;-69
2022/06/26 04:05:40;;;;;;;25.73;17.83;;;;;;;15.02;100.00;101276.63;5050441;28;20082;-69
2022/06/26 04:08:06;;;;;;;24.90;16.50;;;;;;;14.99;100.00;101275.19;5056607;28;20033;-69
2022/06/26 04:10:32;;;;;;;25.80;17.48;;;;;;;14.96;100.00;101274.88;5047256;28;20041;-69
2022/06/26 04:13:00;;;;;;;25.13;17.23;;;;;;;14.95;100.00;101259.31;5047358;28;20435;-69
2022/06/26 04:15:26;;;;;;;22.20;16.05;;;;;;;14.96;100.00;101261.03;5047728;28;20515;-68
2022/06/26 04:17:52;;;;;;;22.40;16.77;;;;;;;14.94;100.00;101271.50;5062061;28;20039;-68
2022/06/26 04:20:17;;;;;;;21.55;16.05;;;;;;;14.97;100.00;101280.13;5050460;28;20029;-69
2022/06/26 04:22:42;;;;;;;22.02;15.98;;;;;;;14.95;100.00;101274.03;5055952;28;20373;-69
2022/06/26 04:25:08;;;;;;;24.00;15.73;;;;;;;14.98;100.00;101286.50;5050786;28;20025;-69
2022/06/26 04:27:33;;;;;;;22.92;14.68;;;;;;;14.98;100.00;101280.97;5048460;28;20036;-68
2022/06/26 04:29:58;;;;;;;24.77;15.82;;;;;;;14.99;100.00;101283.47;5047731;28;20044;-69
2022/06/26 04:32:24;;;;;;;22.63;15.65;;;;;;;15.01;100.00;101286.84;5054900;28;20055;-68
2022/06/26 04:34:49;;;;;;;22.17;15.70;;;;;;;15.01;100.00;101300.69;5048829;28;20400;-69
2022/06/26 04:37:15;;;;;;;21.88;15.13;;;;;;;15.03;100.00;101298.50;5047193;28;20028;-69
2022/06/26 04:39:40;;;;;;;24.10;17.05;;;;;;;15.05;100.00;101303.75;5063532;28;20112;-69
2022/06/26 04:42:05;;;;;;;22.48;16.67;;;;;;;15.05;100.00;101310.16;5045485;28;20029;-69
2022/06/26 04:44:31;;;;;;;24.75;16.23;;;;;;;15.00;100.00;101312.84;5047512;28;20063;-69
2022/06/26 04:46:56;;;;;;;24.13;16.50;;;;;;;14.99;100.00;101319.44;5046657;28;20032;-68
2022/06/26 04:49:21;;;;;;;22.80;16.17;;;;;;;15.02;100.00;101327.25;5057280;28;20032;-69
2022/06/26 04:51:46;;;;;;;23.70;15.65;;;;;;;15.03;100.00;101322.56;5049199;28;20036;-68
2022/06/26 04:54:12;;;;;;;22.63;15.02;;;;;;;15.14;100.00;101329.94;5050486;28;20060;-68
2022/06/26 04:56:38;;;;;;;21.80;14.05;;;;;;;15.16;100.00;101336.09;5046406;28;20021;-69
2022/06/26 04:59:04;;;;;;;19.95;14.38;;;;;;;15.18;100.00;101339.44;5046560;28;20062;-69
2022/06/26 05:01:30;;;;;;;20.05;14.10;;;;;;;15.23;100.00;101347.81;5051260;28;20695;-69
2022/06/26 05:03:55;;;;;;;22.88;14.75;;;;;;;15.24;100.00;101335.66;5067205;28;20055;-68
2022/06/26 05:06:21;;;;;;;19.38;13.02;;;;;;;15.28;100.00;101330.47;5061273;28;20025;-69
2022/06/26 05:08:47;;;;;;;21.55;13.48;;;;;;;15.28;100.00;101325.78;5040012;28;20059;-69
2022/06/26 05:11:13;;;;;;;19.88;13.52;;;;;;;15.29;100.00;101340.44;5047348;28;20522;-69
2022/06/26 05:13:38;;;;;;;19.45;13.45;;;;;;;15.26;100.00;101335.44;5047395;28;20032;-68
2022/06/26 05:16:04;;;;;;;20.95;13.40;;;;;;;15.26;100.00;101339.03;5060812;28;20036;-69
2022/06/26 05:18:30;;;;;;;22.10;12.73;;;;;;;15.30;100.00;101340.19;5052463;28;20104;-69
2022/06/26 05:20:55;;;;;;;20.95;13.43;;;;;;;15.28;99.95;101342.38;5044377;28;20115;-69
2022/06/26 05:23:21;;;;;;;19.60;12.60;;;;;;;15.29;100.00;101337.69;5044990;28;20119;-68
2022/06/26 05:25:47;;;;;;;19.40;12.73;;;;;;;15.34;100.00;101343.31;5044330;28;20037;-68
2022/06/26 05:28:12;;;;;;;19.23;12.35;;;;;;;15.33;100.00;101347.16;5044732;28;20186;-69
2022/06/26 05:30:37;;;;;;;20.55;12.52;;;;;;;15.32;100.00;101339.97;5045712;28;20436;-70
2022/06/26 05:33:03;;;;;;;18.55;12.95;;;;;;;15.35;99.94;101333.91;5044829;28;20031;-70
2022/06/26 05:35:28;;;;;;;22.13;13.13;;;;;;;15.42;100.00;101334.59;5045827;28;20545;-69
2022/06/26 05:37:54;;;;;;;19.10;12.95;;;;;;;15.43;99.65;101329.91;5043271;28;20083;-69
2022/06/26 05:40:19;;;;;;;20.73;12.65;;;;;;;15.56;100.00;101337.84;5056759;28;20031;-69
2022/06/26 05:42:45;;;;;;;21.60;12.77;;;;;;;15.62;98.78;101333.25;5062314;28;20032;-70
2022/06/26 05:45:10;;;;;;;19.20;12.20;;;;;;;15.64;98.51;101351.31;5046547;28;20025;-70
2022/06/26 05:47:36;;;;;;;22.80;12.57;;;;;;;15.60;97.37;101358.41;5041517;28;20027;-70
2022/06/26 05:50:01;;;;;;;19.17;12.70;;;;;;;15.60;97.68;101360.34;5046363;28;20154;-70
2022/06/26 05:52:27;;;;;;;19.95;13.07;;;;;;;15.72;97.43;101361.97;5038788;28;20029;-70
2022/06/26 05:54:52;;;;;;;17.27;11.38;;;;;;;15.65;95.68;101368.75;5052075;28;20073;-68
2022/06/26 05:57:19;;;;;;;18.75;11.93;;;;;;;15.73;96.38;101376.66;5047338;28;20021;-69
2022/06/26 05:59:46;;;;;;;19.92;11.88;;;;;;;15.87;95.66;101378.00;5054298;28;20107;-69
2022/06/26 06:02:11;;;;;;;21.58;13.20;;;;;;;15.94;95.54;101378.66;5066650;28;20078;-69
2022/06/26 06:04:37;;;;;;;18.77;12.60;;;;;;;15.98;95.20;101390.06;5064551;28;20033;-69
2022/06/26 06:07:03;;;;;;;17.95;12.38;;;;;;;16.09;94.58;101381.66;5045539;28;20055;-68
2022/06/26 06:09:28;;;;;;;19.88;12.68;;;;;;;16.25;94.77;101390.19;5047343;28;20021;-69
2022/06/26 06:11:53;;;;;;;18.13;11.45;;;;;;;16.26;92.95;101387.16;5045270;28;20037;-68
2022/06/26 06:14:18;;;;;;;20.58;12.15;;;;;;;16.27;92.21;101391.63;5046044;28;20361;-70
2022/06/26 06:16:44;;;;;;;18.42;11.45;;;;;;;16.38;93.27;101400.09;5045185;28;20021;-69
2022/06/26 06:19:09;;;;;;;16.17;10.27;;;;;;;16.34;91.22;101395.03;5046292;28;20009;-70
2022/06/26 06:21:34;;;;;;;18.77;10.93;;;;;;;16.39;91.61;101390.66;5045363;28;20041;-70
2022/06/26 06:24:00;;;;;;;19.38;11.30;;;;;;;16.46;92.95;101388.53;5046301;28;20040;-70
2022/06/26 06:26:25;;;;;;;17.63;11.05;;;;;;;16.50;89.72;101387.78;5046341;28;20085;-70
2022/06/26 06:28:50;;;;;;;18.67;11.38;;;;;;;16.62;89.49;101382.09;5046353;28;20025;-71
2022/06/26 06:31:16;;;;;;;20.15;11.80;;;;;;;16.80;90.06;101383.75;5045697;28;20043;-70
2022/06/26 06:33:41;;;;;;;20.13;11.27;;;;;;;16.99;92.74;101384.25;5044646;28;20025;-70
2022/06/26 06:36:06;;;;;;;19.35;10.68;;;;;;;17.12;89.25;101390.19;5043952;28;20025;-69
2022/06/26 06:38:32;;;;;;;17.88;9.35;;;;;;;17.08;87.72;101390.97;5044735;28;20075;-69
2022/06/26 06:40:57;;;;;;;18.17;9.82;;;;;;;17.10;86.30;101395.19;5043145;28;20111;-70
2022/06/26 06:43:22;;;;;;;18.33;10.60;;;;;;;17.16;87.21;101409.13;5046658;28;20082;-70
2022/06/26 06:45:47;;;;;;;17.60;10.13;;;;;;;17.25;86.50;101413.94;5044473;28;20507;-70
2022/06/26 06:48:13;;;;;;;17.35;9.63;;;;;;;17.43;85.81;101409.13;5044975;28;20032;-69
2022/06/26 06:50:38;;;;;;;19.45;9.68;;;;;;;17.51;86.35;101420.59;5044770;28;20163;-70
2022/06/26 06:53:03;;;;;;;16.63;10.27;;;;;;;17.54;86.84;101422.03;5045970;28;20036;-70
2022/06/26 06:55:29;;;;;;;15.95;9.60;;;;;;;17.49;85.57;101439.47;5045687;28;20043;-69
2022/06/26 06:57:54;;;;;;;17.30;9.80;;;;;;;17.45;85.35;101434.69;5045623;28;20044;-70
2022/06/26 07:00:20;;;;;;;16.60;10.50;;;;;;;17.34;84.73;101453.19;5045387;28;20033;-70
2022/06/26 07:02:45;;;;;;;15.48;9.88;;;;;;;17.35;84.96;101444.59;5044950;28;20056;-70
2022/06/26 07:05:10;;;;;;;17.80;11.63;;;;;;;17.40;85.77;101465.19;5044451;28;20799;-70
2022/06/26 07:07:36;;;;;;;21.60;11.43;;;;;;;17.51;85.00;101469.75;5043227;28;20052;-69
2022/06/26 07:10:02;;;;;;;20.70;10.65;;;;;;;17.58;84.65;101473.97;5045133;28;20180;-70
2022/06/26 07:12:28;;;;;;;18.77;10.82;;;;;;;17.74;85.98;101476.94;5044706;28;20044;-70
2022/06/26 07:14:53;;;;;;;15.25;9.52;;;;;;;17.83;85.11;101481.75;5043968;28;20068;-69
2022/06/26 07:17:21;;;;;;;17.67;10.45;;;;;;;17.89;83.69;101482.63;5044672;28;20104;-70
2022/06/26 07:19:46;;;;;;;17.17;10.10;;;;;;;17.97;84.49;101484.09;5045688;28;20020;-71
2022/06/26 07:22:12;;;;;;;17.85;9.35;;;;;;;17.95;83.49;101486.34;5045190;28;20037;-71
2022/06/26 07:24:39;;;;;;;17.63;10.63;;;;;;;17.98;84.48;101492.19;5045908;28;20365;-71
2022/06/26 07:27:04;;;;;;;16.70;9.68;;;;;;;17.84;82.10;101485.38;5045520;28;20090;-70
2022/06/26 07:29:30;;;;;;;18.13;9.48;;;;;;;17.91;81.89;101480.44;5046286;28;20044;-70
2022/06/26 07:31:55;;;;;;;15.18;9.32;;;;;;;18.06;81.75;101476.97;5044386;28;20552;-71
2022/06/26 07:34:21;;;;;;;17.73;8.57;;;;;;;18.10;80.89;101465.06;5045068;28;20036;-71
2022/06/26 07:36:49;;;;;;;16.95;9.57;;;;;;;18.15;79.97;101476.22;5044106;28;20538;-70
2022/06/26 07:39:16;;;;;;;15.15;8.63;;;;;;;18.19;80.90;101478.44;5043776;28;20009;-70
2022/06/26 07:41:43;;;;;;;15.02;8.13;;;;;;;18.24;79.14;101487.66;5046398;28;20017;-68
2022/06/26 07:44:08;;;;;;;16.98;8.77;;;;;;;18.22;80.84;101491.81;5057883;28;20392;-71
2022/06/26 07:46:35;;;;;;;15.02;8.77;;;;;;;18.27;80.62;101489.91;5043070;28;20025;-68
2022/06/26 07:49:01;;;;;;;13.05;8.02;;;;;;;18.25;79.37;101482.94;5052894;28;20021;-69
2022/06/26 07:51:27;;;;;;;15.25;9.05;;;;;;;18.17;79.90;101486.22;5062541;28;20487;-69
2022/06/26 07:53:52;;;;;;;14.23;9.52;;;;;;;18.13;80.51;101477.56;5054336;28;20029;-68
2022/06/26 07:56:17;;;;;;;15.18;8.40;;;;;;;18.22;81.67;101489.03;5045526;28;20435;-70
2022/06/26 07:58:42;;;;;;;13.23;8.20;;;;;;;18.28;80.39;101491.59;5053913;28;20059;-71
2022/06/26 08:01:08;;;;;;;14.18;8.82;;;;;;;18.28;80.70;101487.97;5063004;28;20024;-70
2022/06/26 08:03:33;;;;;;;15.15;8.88;;;;;;;18.37;81.48;101487.22;5053008;28;20140;-70
2022/06/26 08:05:58;;;;;;;14.13;7.82;;;;;;;18.39;79.52;101492.50;5044486;28;20112;-70
2022/06/26 08:08:24;;;;;;;12.75;8.48;;;;;;;18.35;78.32;101503.34;5043182;28;20060;-70
2022/06/26 08:10:50;;;;;;;13.20;8.55;;;;;;;18.37;79.23;101508.63;5044514;28;20386;-70
2022/06/26 08:13:15;;;;;;;15.07;8.63;;;;;;;18.34;79.08;101509.16;5045032;28;20025;-70
2022/06/26 08:15:40;;;;;;;12.75;8.20;;;;;;;18.31;79.42;101515.25;5044719;28;20041;-69
2022/06/26 08:18:07;;;;;;;15.05;8.65;;;;;;;18.31;79.66;101512.47;5044105;28;20025;-70
2022/06/26 08:20:32;;;;;;;13.45;9.05;;;;;;;18.40;80.08;101516.44;5044575;28;20104;-70
2022/06/26 08:22:58;;;;;;;14.15;8.00;;;;;;;18.49;79.09;101505.63;5044727;28;20120;-70
2022/06/26 08:25:23;;;;;;;16.30;8.63;;;;;;;18.44;79.40;101505.59;5045397;28;20021;-70
2022/06/26 08:27:48;;;;;;;14.15;8.45;;;;;;;18.32;79.04;101514.16;5044479;28;20051;-71
2022/06/26 08:30:14;;;;;;;13.32;7.78;;;;;;;18.27;79.56;101519.66;5051090;28;21078;-71
2022/06/26 08:32:39;;;;;;;13.95;7.78;;;;;;;18.19;79.19;101514.59;5055225;28;20024;-73
2022/06/26 08:35:06;;;;;;;14.18;8.55;;;;;;;18.20;80.86;101521.81;5053559;28;20043;-70
2022/06/26 08:37:32;;;;;;;13.10;8.60;;;;;;;18.23;79.91;101521.31;5044872;28;20032;-70
2022/06/26 08:39:57;;;;;;;13.32;8.15;;;;;;;18.24;79.63;101514.63;5044772;28;20583;-70
2022/06/26 08:42:25;;;;;;;12.93;7.78;;;;;;;18.27;80.41;101498.25;5044229;28;20495;-70
2022/06/26 08:44:51;;;;;;;13.15;8.45;;;;;;;18.22;78.92;101501.00;5045309;28;20037;-70
2022/06/26 08:47:21;;;;;;;14.70;7.35;;;;;;;18.26;79.29;101502.16;5044646;28;20076;-70
2022/06/26 08:49:47;;;;;;;15.20;8.00;;;;;;;18.30;79.52;101510.81;5043928;28;20491;-70
2022/06/26 08:52:18;;;;;;;12.77;7.38;;;;;;;18.35;78.50;101521.97;5058053;28;20028;-69
2022/06/26 08:54:43;;;;;;;13.70;8.10;;;;;;;18.28;77.96;101524.13;5064738;28;20068;-70
2022/06/26 08:57:09;;;;;;;10.70;7.57;;;;;;;18.23;77.63;101524.09;5054152;28;20064;-69
2022/06/26 08:59:34;;;;;;;10.43;7.03;;;;;;;18.12;77.79;101526.78;5048624;28;20021;-69
2022/06/26 09:02:00;;;;;;;11.73;7.18;;;;;;;18.14;77.91;101527.34;5043991;28;20032;-69
2022/06/26 09:04:25;;;;;;;14.45;8.02;;;;;;;18.23;78.88;101515.75;5048256;28;20029;-68
2022/06/26 09:06:50;;;;;;;13.63;7.40;;;;;;;18.32;79.70;101514.16;5047794;28;20021;-69
2022/06/26 09:09:19;;;;;;;12.98;7.63;;;;;;;18.29;78.06;101531.34;5044880;28;20460;-68
2022/06/26 09:11:45;;;;;;;11.48;7.65;;;;;;;18.26;77.58;101531.91;5047759;28;20040;-69
2022/06/26 09:14:12;;;;;;;14.98;8.00;;;;;;;18.13;76.77;101539.56;5046859;28;20032;-69
2022/06/26 09:16:39;;;;;;;14.23;8.63;;;;;;;18.14;77.94;101537.63;5047521;28;20029;-69
2022/06/26 09:19:09;;;;;;;12.05;8.65;;;;;;;18.20;79.42;101532.94;5047351;28;20051;-69
2022/06/26 09:21:35;;;;;;;16.48;9.48;;;;;;;18.17;77.75;101527.94;5046980;28;20400;-69
2022/06/26 09:24:01;;;;;;;12.70;9.60;;;;;;;18.18;79.46;101529.59;5045586;28;20101;-68
2022/06/26 09:26:26;;;;;;;13.73;9.38;;;;;;;18.15;77.90;101517.91;5047576;28;20826;-68
2022/06/26 09:28:52;;;;;;;12.85;9.07;;;;;;;18.18;78.80;101518.47;5046544;28;20048;-68
2022/06/26 09:31:21;;;;;;;13.38;9.65;;;;;;;18.23;78.96;101512.97;5050136;28;20035;-68
2022/06/26 09:33:47;;;;;;;15.70;9.85;;;;;;;18.25;78.39;101528.28;5054904;28;20322;-69
2022/06/26 09:36:17;;;;;;;13.07;8.50;;;;;;;18.28;77.35;101535.25;5067434;28;20495;-68
2022/06/26 09:38:50;;;;;;;11.73;7.82;;;;;;;18.30;76.92;101528.34;5063382;28;20048;-69
2022/06/26 09:41:16;;;;;;;12.52;8.02;;;;;;;18.49;76.81;101539.03;5045970;28;20428;-70
2022/06/26 09:43:44;;;;;;;11.23;7.95;;;;;;;18.59;76.68;101537.16;5046305;28;20108;-68
2022/06/26 09:46:11;;;;;;;14.07;9.00;;;;;;;18.60;75.74;101524.06;5044084;28;20067;-68
2022/06/26 09:48:38;;;;;;;11.38;9.07;;;;;;;18.53;75.64;101529.03;5046018;28;20032;-69
2022/06/26 09:51:10;;;;;;;15.63;8.63;;;;;;;18.61;77.61;101536.91;5046112;28;20033;-69
2022/06/26 09:53:36;;;;;;;11.60;8.02;;;;;;;18.48;73.45;101531.78;5045966;28;20047;-69
2022/06/26 09:56:03;;;;;;;14.05;7.82;;;;;;;18.45;75.40;101540.66;5046091;28;20178;-69
2022/06/26 09:58:29;;;;;;;13.52;8.15;;;;;;;18.49;73.44;101537.06;5046071;28;20392;-68
2022/06/26 10:06:28;;;;;;;11.10;8.57;;;;;;;18.81;73.23;101544.59;5046039;28;20083;-67
2022/06/26 10:08:59;;;;;;;12.30;7.90;;;;;;;18.97;75.56;101553.84;5045220;28;20025;-68
2022/06/26 10:11:27;;;;;;;11.57;7.88;;;;;;;19.19;75.39;101547.00;5045730;28;20543;-68
2022/06/26 10:13:57;;;;;;;11.98;8.65;;;;;;;19.32;72.09;101545.69;5044048;28;20043;-67
2022/06/26 10:16:37;;;;;;;11.07;8.25;;;;;;;19.22;73.28;101550.38;5044708;28;20045;-68
2022/06/26 10:19:17;;;;;;;9.82;7.05;;;;;;;19.17;73.35;101553.97;5045426;28;20037;-68
2022/06/26 10:21:42;;;;;;;11.77;6.45;;;;;;;19.13;75.06;101553.66;5045652;28;20116;-68
2022/06/26 10:24:08;;;;;;;12.55;6.72;;;;;;;19.14;73.03;101569.25;5045587;28;20112;-68
2022/06/26 10:26:35;;;;;;;11.27;6.95;;;;;;;18.96;72.70;101574.44;5046084;28;20104;-68
2022/06/26 10:29:09;;;;;;;11.10;5.70;;;;;;;18.83;71.46;101578.53;5045179;28;20029;-68
2022/06/26 10:31:49;;;;;;;8.75;4.22;;;;;;;18.82;70.90;101569.34;5044580;28;20044;-68
2022/06/26 10:34:16;;;;;;;8.35;4.10;;;;;;;18.87;73.23;101560.19;5045067;28;20036;-68
2022/06/26 10:36:41;;;;;;;6.85;3.53;;;;;;;19.16;68.50;101557.88;5046273;28;20387;-68
2022/06/26 10:39:07;;;;;;;9.50;3.90;;;;;;;19.16;67.17;101561.47;5043989;28;20116;-70
2022/06/26 10:44:55;;;;;;;7.95;4.20;;;;;;;19.49;69.68;101561.34;5045222;28;20043;-70
2022/06/26 10:47:20;;;;;;;7.72;5.35;;;;;;;19.40;67.13;101559.06;5043170;28;20037;-69
2022/06/26 10:49:52;;;;;;;10.73;5.57;;;;;;;19.45;69.32;101559.09;5045259;28;20036;-69
2022/06/26 10:52:29;;;;;;;8.48;4.82;;;;;;;19.61;69.67;101557.22;5043632;28;20078;-69
2022/06/26 10:54:57;;;;;;;9.20;5.15;;;;;;;19.75;66.66;101554.75;5045209;28;20033;-69
2022/06/26 10:57:37;;;;;;;8.32;4.00;;;;;;;20.09;65.19;101560.69;5045084;28;20526;-69
2022/06/26 11:00:10;;;;;;;7.43;3.60;;;;;;;20.31;65.28;101562.34;5044393;28;20535;-68
2022/06/26 11:02:39;;;;;;;8.50;3.60;;;;;;;20.27;64.22;101559.28;5044100;28;20029;-68
2022/06/26 11:05:07;;;;;;;9.05;3.65;;;;;;;20.32;64.15;101558.44;5044513;28;20053;-68
2022/06/26 11:07:51;;;;;;;7.63;3.50;;;;;;;20.70;64.72;101566.28;5044712;28;20044;-69
2022/06/26 11:10:19;;;;;;;8.10;3.97;;;;;;;20.91;65.86;101566.25;5044961;28;20048;-68
2022/06/26 11:12:49;;;;;;;8.60;4.40;;;;;;;20.85;65.02;101561.78;5044966;28;20774;-68
2022/06/26 11:15:27;;;;;;;9.35;5.25;;;;;;;20.79;63.41;101554.56;5044102;28;20025;-68
2022/06/26 11:17:54;;;;;;;10.00;5.22;;;;;;;20.75;65.33;101553.44;5042285;28;20031;-68